createdAt,value
2022-10-02T00:00:18.683Z,3.60
2022-10-02T00:01:18.715Z,3.50
2022-10-02T00:02:18.672Z,4.10
2022-10-02T00:03:18.641Z,3.50
2022-10-02T00:04:18.699Z,3.80
2022-10-02T00:05:18.622Z,3.40
2022-10-02T00:06:18.611Z,3.40
2022-10-02T00:07:18.610Z,3.80
2022-10-02T00:08:23.326Z,3.10
2022-10-02T00:09:19.592Z,3.90
2022-10-02T00:10:18.575Z,3.30
2022-10-02T00:11:18.563Z,3.50
2022-10-02T00:12:18.543Z,3.80
2022-10-02T00:13:18.535Z,3.10
2022-10-02T00:14:18.663Z,4.50
2022-10-02T00:15:18.514Z,3.50
2022-10-02T00:16:18.565Z,3.90
2022-10-02T00:17:18.494Z,3.20
2022-10-02T00:18:18.483Z,3.60
2022-10-02T00:19:18.475Z,4.20
2022-10-02T00:20:18.456Z,3.40
2022-10-02T00:21:18.445Z,3.40
2022-10-02T00:22:18.445Z,4.10
2022-10-02T00:23:18.434Z,3.40
2022-10-02T00:24:18.444Z,3.80
2022-10-02T00:25:18.405Z,3.80
2022-10-02T00:26:18.396Z,4.30
2022-10-02T00:27:18.375Z,3.50
2022-10-02T00:28:18.465Z,3.50
2022-10-02T00:29:18.377Z,3.40
2022-10-02T00:30:18.366Z,3.10
2022-10-02T00:31:18.432Z,3.70
2022-10-02T00:32:18.326Z,3.70
2022-10-02T00:33:18.318Z,3.90
2022-10-02T00:34:18.318Z,3.70
2022-10-02T00:35:18.297Z,3.20
2022-10-02T00:36:18.307Z,3.40
2022-10-02T00:37:18.276Z,3.00
2022-10-02T00:38:18.269Z,3.70
2022-10-02T00:39:18.258Z,3.70
2022-10-02T00:40:18.239Z,3.80
2022-10-02T00:41:18.229Z,3.70
2022-10-02T00:42:18.219Z,3.70
2022-10-02T00:43:18.200Z,3.70
2022-10-02T00:44:18.208Z,3.70
2022-10-02T00:45:18.201Z,3.30
2022-10-02T00:46:18.203Z,3.80
2022-10-02T00:47:18.159Z,3.80
2022-10-02T00:48:18.150Z,4.50
2022-10-02T00:49:18.151Z,3.40
2022-10-02T00:50:18.142Z,3.70
2022-10-02T00:51:18.150Z,3.30
2022-10-02T00:52:18.111Z,4.00
2022-10-02T00:53:18.091Z,4.60
2022-10-02T00:54:18.091Z,3.20
2022-10-02T00:55:18.082Z,3.20
2022-10-02T00:56:18.092Z,3.60
2022-10-02T00:57:18.063Z,3.70
2022-10-02T00:58:18.042Z,3.60
2022-10-02T00:59:18.043Z,3.70
2022-10-02T01:00:18.025Z,3.70
2022-10-02T01:01:18.060Z,3.80
2022-10-02T01:02:18.114Z,3.70
2022-10-02T01:03:17.986Z,4.00
2022-10-02T01:04:17.986Z,3.90
2022-10-02T01:05:17.964Z,3.50
2022-10-02T01:06:17.964Z,4.90
2022-10-02T01:07:17.945Z,4.00
2022-10-02T01:08:17.933Z,3.30
2022-10-02T01:09:17.925Z,3.30
2022-10-02T01:10:18.128Z,3.60
2022-10-02T01:11:17.896Z,3.50
2022-10-02T01:12:18.075Z,3.80
2022-10-02T01:13:17.877Z,4.30
2022-10-02T01:14:17.886Z,3.40
2022-10-02T01:15:17.848Z,3.90
2022-10-02T01:16:17.926Z,3.20
2022-10-02T01:17:17.838Z,3.80
2022-10-02T01:18:17.938Z,3.40
2022-10-02T01:19:17.817Z,4.20
2022-10-02T01:20:17.986Z,3.90
2022-10-02T01:21:17.780Z,4.10
2022-10-02T01:22:17.778Z,3.70
2022-10-02T01:23:17.768Z,3.50
2022-10-02T01:24:17.766Z,4.10
2022-10-02T01:25:17.749Z,3.30
2022-10-02T01:26:17.747Z,3.50
2022-10-02T01:27:17.719Z,3.60
2022-10-02T01:28:17.775Z,3.60
2022-10-02T01:29:17.719Z,3.80
2022-10-02T01:30:17.698Z,4.10
2022-10-02T01:31:17.755Z,3.80
2022-10-02T01:32:17.670Z,3.90
2022-10-02T01:33:17.659Z,4.20
2022-10-02T01:34:17.672Z,3.60
2022-10-02T01:35:17.660Z,4.10
2022-10-02T01:36:17.631Z,3.40
2022-10-02T01:37:17.622Z,3.40
2022-10-02T01:38:17.605Z,3.70
2022-10-02T01:39:17.603Z,3.40
2022-10-02T01:40:17.586Z,4.20
2022-10-02T01:41:17.587Z,3.90
2022-10-02T01:42:17.563Z,4.40
2022-10-02T01:43:17.562Z,3.80
2022-10-02T01:44:17.562Z,3.50
2022-10-02T01:45:17.535Z,3.50
2022-10-02T01:46:17.567Z,5.50
2022-10-02T01:47:17.515Z,3.90
2022-10-02T01:48:17.511Z,4.10
2022-10-02T01:49:17.521Z,4.70
2022-10-02T01:50:17.519Z,4.20
2022-10-02T01:51:17.475Z,3.70
2022-10-02T01:52:17.483Z,3.90
2022-10-02T01:53:17.454Z,4.70
2022-10-02T01:54:17.445Z,3.90
2022-10-02T01:55:17.427Z,4.30
2022-10-02T01:56:17.436Z,3.80
2022-10-02T01:57:17.407Z,4.70
2022-10-02T01:58:17.396Z,4.10
2022-10-02T01:59:17.409Z,3.50
2022-10-02T02:00:17.382Z,4.10
2022-10-02T02:01:17.439Z,3.80
2022-10-02T02:02:17.418Z,3.90
2022-10-02T02:03:17.350Z,3.80
2022-10-02T02:04:17.339Z,3.50
2022-10-02T02:05:17.329Z,4.20
2022-10-02T02:06:17.430Z,3.90
2022-10-02T02:07:17.379Z,4.80
2022-10-02T02:08:17.418Z,3.70
2022-10-02T02:09:17.529Z,4.10
2022-10-02T02:10:17.333Z,3.90
2022-10-02T02:11:17.315Z,4.30
2022-10-02T02:12:17.239Z,3.60
2022-10-02T02:13:17.231Z,3.80
2022-10-02T02:14:17.234Z,4.20
2022-10-02T02:15:17.224Z,4.10
2022-10-02T02:16:17.248Z,3.80
2022-10-02T02:17:17.191Z,4.00
2022-10-02T02:18:17.181Z,3.60
2022-10-02T02:19:17.173Z,4.20
2022-10-02T02:20:17.183Z,3.60
2022-10-02T02:21:17.142Z,3.70
2022-10-02T02:22:17.132Z,4.00
2022-10-02T02:23:17.141Z,4.50
2022-10-02T02:24:17.107Z,4.30
2022-10-02T02:25:17.103Z,4.10
2022-10-02T02:26:17.093Z,3.80
2022-10-02T02:27:17.082Z,3.50
2022-10-02T02:28:17.147Z,4.60
2022-10-02T02:29:17.065Z,4.20
2022-10-02T02:30:17.050Z,3.80
2022-10-02T02:31:17.075Z,4.10
2022-10-02T02:32:17.025Z,4.60
2022-10-02T02:33:17.025Z,3.90
2022-10-02T02:34:17.005Z,4.20
2022-10-02T02:35:17.006Z,4.30
2022-10-02T02:36:16.984Z,3.80
2022-10-02T02:37:16.978Z,3.50
2022-10-02T02:38:16.966Z,3.90
2022-10-02T02:39:16.946Z,4.20
2022-10-02T02:40:16.946Z,3.80
2022-10-02T02:41:16.940Z,3.50
2022-10-02T02:42:18.203Z,3.90
2022-10-02T02:43:16.941Z,3.80
2022-10-02T02:44:16.898Z,4.10
2022-10-02T02:45:16.879Z,3.90
2022-10-02T02:46:16.879Z,4.00
2022-10-02T02:47:16.871Z,4.00
2022-10-02T02:48:16.878Z,4.40
2022-10-02T02:49:16.871Z,3.50
2022-10-02T02:50:16.884Z,3.80
2022-10-02T02:51:16.819Z,4.00
2022-10-02T02:52:16.839Z,3.70
2022-10-02T02:53:16.810Z,3.70
2022-10-02T02:54:16.819Z,4.20
2022-10-02T02:55:16.782Z,4.10
2022-10-02T02:56:16.771Z,3.80
2022-10-02T02:57:16.751Z,3.70
2022-10-02T02:58:16.761Z,3.50
2022-10-02T02:59:16.741Z,3.90
2022-10-02T03:00:16.720Z,3.80
2022-10-02T03:01:16.763Z,3.90
2022-10-02T03:02:16.733Z,3.70
2022-10-02T03:03:16.701Z,3.60
2022-10-02T03:04:16.687Z,3.80
2022-10-02T03:05:16.674Z,4.40
2022-10-02T03:06:16.691Z,3.90
2022-10-02T03:07:16.653Z,4.20
2022-10-02T03:08:16.663Z,3.70
2022-10-02T03:09:16.632Z,3.80
2022-10-02T03:10:16.623Z,3.80
2022-10-02T03:11:16.615Z,3.90
2022-10-02T03:12:16.593Z,3.60
2022-10-02T03:13:16.601Z,4.40
2022-10-02T03:14:16.584Z,3.90
2022-10-02T03:15:16.555Z,4.00
2022-10-02T03:16:16.686Z,3.60
2022-10-02T03:17:16.546Z,4.20
2022-10-02T03:18:16.539Z,4.10
2022-10-02T03:19:16.540Z,4.20
2022-10-02T03:20:16.505Z,3.30
2022-10-02T03:21:16.496Z,4.10
2022-10-02T03:22:16.486Z,4.00
2022-10-02T03:23:16.523Z,4.10
2022-10-02T03:24:16.472Z,4.60
2022-10-02T03:25:16.457Z,4.10
2022-10-02T03:26:16.468Z,4.20
2022-10-02T03:27:16.428Z,4.60
2022-10-02T03:28:23.890Z,4.40
2022-10-02T03:29:17.430Z,4.40
2022-10-02T03:30:16.413Z,4.80
2022-10-02T03:31:16.567Z,3.90
2022-10-02T03:32:16.439Z,4.60
2022-10-02T03:33:16.395Z,5.50
2022-10-02T03:34:16.420Z,4.40
2022-10-02T03:35:16.351Z,4.10
2022-10-02T03:36:16.320Z,4.50
2022-10-02T03:37:16.320Z,4.30
2022-10-02T03:38:16.332Z,4.40
2022-10-02T03:39:25.596Z,3.80
2022-10-02T03:40:17.324Z,3.90
2022-10-02T03:41:16.310Z,3.90
2022-10-02T03:42:16.260Z,4.00
2022-10-02T03:43:16.271Z,4.30
2022-10-02T03:44:16.268Z,4.30
2022-10-02T03:45:32.815Z,4.20
2022-10-02T03:46:17.241Z,3.70
2022-10-02T03:47:16.212Z,4.00
2022-10-02T03:48:16.203Z,4.00
2022-10-02T03:49:16.184Z,4.30
2022-10-02T03:50:16.193Z,3.90
2022-10-02T03:51:16.163Z,3.60
2022-10-02T03:52:16.202Z,4.00
2022-10-02T03:53:16.144Z,3.40
2022-10-02T03:54:16.144Z,4.20
2022-10-02T03:55:16.134Z,4.60
2022-10-02T03:56:16.113Z,4.00
2022-10-02T03:57:16.095Z,4.30
2022-10-02T03:58:16.095Z,4.00
2022-10-02T03:59:16.098Z,4.10
2022-10-02T04:00:16.094Z,3.70
2022-10-02T04:01:16.079Z,3.60
2022-10-02T04:02:16.054Z,3.70
2022-10-02T04:03:16.067Z,4.50
2022-10-02T04:04:16.082Z,3.90
2022-10-02T04:05:16.023Z,4.10
2022-10-02T04:06:16.061Z,4.00
2022-10-02T04:07:16.016Z,4.10
2022-10-02T04:08:15.988Z,4.50
2022-10-02T04:09:16.033Z,3.80
2022-10-02T04:10:15.948Z,3.90
2022-10-02T04:11:15.949Z,4.20
2022-10-02T04:12:15.928Z,3.50
2022-10-02T04:13:15.938Z,4.30
2022-10-02T04:14:15.949Z,3.60
2022-10-02T04:15:15.907Z,4.20
2022-10-02T04:16:15.938Z,4.10
2022-10-02T04:17:15.881Z,4.20
2022-10-02T04:18:15.899Z,3.90
2022-10-02T04:19:15.879Z,4.70
2022-10-02T04:20:15.891Z,4.60
2022-10-02T04:21:15.840Z,3.30
2022-10-02T04:22:15.830Z,3.40
2022-10-02T04:23:15.880Z,3.60
2022-10-02T04:24:15.835Z,3.50
2022-10-02T04:25:15.810Z,4.50
2022-10-02T04:26:15.781Z,4.30
2022-10-02T04:27:15.859Z,3.70
2022-10-02T04:28:15.806Z,4.10
2022-10-02T04:29:15.835Z,3.50
2022-10-02T04:30:15.730Z,3.30
2022-10-02T04:31:15.763Z,3.30
2022-10-02T04:32:15.713Z,3.60
2022-10-02T04:33:15.712Z,3.80
2022-10-02T04:34:15.731Z,4.60
2022-10-02T04:35:15.691Z,4.00
2022-10-02T04:36:15.693Z,4.10
2022-10-02T04:37:15.661Z,3.70
2022-10-02T04:38:15.662Z,4.10
2022-10-02T04:39:15.636Z,4.10
2022-10-02T04:40:15.753Z,4.30
2022-10-02T04:41:15.624Z,4.10
2022-10-02T04:42:15.618Z,3.40
2022-10-02T04:43:15.604Z,5.10
2022-10-02T04:44:15.606Z,4.00
2022-10-02T04:45:15.567Z,3.90
2022-10-02T04:46:15.643Z,4.30
2022-10-02T04:47:15.555Z,4.20
2022-10-02T04:48:15.635Z,3.90
2022-10-02T04:49:15.527Z,4.10
2022-10-02T04:50:15.515Z,3.90
2022-10-02T04:51:15.506Z,3.80
2022-10-02T04:52:15.576Z,3.90
2022-10-02T04:53:15.496Z,4.20
2022-10-02T04:54:15.467Z,4.00
2022-10-02T04:55:15.467Z,3.80
2022-10-02T04:56:15.450Z,4.70
2022-10-02T04:57:15.438Z,3.60
2022-10-02T04:58:15.458Z,3.90
2022-10-02T04:59:15.419Z,3.40
2022-10-02T05:00:15.407Z,3.80
2022-10-02T05:01:15.449Z,3.20
2022-10-02T05:02:15.510Z,3.60
2022-10-02T05:03:15.379Z,3.50
2022-10-02T05:04:15.361Z,3.40
2022-10-02T05:05:15.361Z,3.50
2022-10-02T05:06:15.329Z,3.50
2022-10-02T05:07:15.336Z,3.20
2022-10-02T05:08:15.350Z,3.80
2022-10-02T05:09:15.339Z,4.60
2022-10-02T05:10:15.384Z,4.20
2022-10-02T05:11:15.310Z,3.70
2022-10-02T05:12:15.310Z,3.50
2022-10-02T05:13:15.326Z,3.90
2022-10-02T05:14:15.272Z,4.10
2022-10-02T05:15:15.242Z,4.00
2022-10-02T05:16:15.320Z,4.50
2022-10-02T05:17:15.242Z,3.70
2022-10-02T05:18:18.040Z,3.40
2022-10-02T05:19:15.203Z,3.00
2022-10-02T05:20:15.221Z,3.60
2022-10-02T05:21:15.193Z,3.40
2022-10-02T05:22:15.173Z,4.10
2022-10-02T05:23:15.175Z,4.10
2022-10-02T05:24:15.144Z,3.80
2022-10-02T05:25:15.135Z,4.20
2022-10-02T05:26:15.184Z,3.40
2022-10-02T05:27:15.145Z,3.80
2022-10-02T05:28:15.181Z,3.70
2022-10-02T05:29:15.102Z,3.70
2022-10-02T05:30:15.085Z,3.60
2022-10-02T05:31:15.124Z,4.10
2022-10-02T05:32:15.055Z,3.60
2022-10-02T05:33:15.067Z,3.90
2022-10-02T05:34:15.045Z,4.00
2022-10-02T05:35:15.026Z,3.40
2022-10-02T05:36:15.046Z,3.70
2022-10-02T05:37:15.021Z,3.20
2022-10-02T05:38:15.126Z,3.70
2022-10-02T05:39:14.977Z,3.10
2022-10-02T05:40:14.977Z,3.20
2022-10-02T05:41:14.959Z,3.50
2022-10-02T05:42:14.998Z,3.20
2022-10-02T05:43:14.949Z,4.40
2022-10-02T05:44:14.936Z,3.40
2022-10-02T05:45:14.908Z,4.10
2022-10-02T05:46:15.004Z,3.50
2022-10-02T05:47:14.899Z,3.50
2022-10-02T05:48:14.888Z,3.30
2022-10-02T05:49:14.869Z,3.60
2022-10-02T05:50:14.860Z,3.40
2022-10-02T05:51:14.839Z,3.20
2022-10-02T05:52:14.859Z,3.50
2022-10-02T05:53:14.839Z,3.40
2022-10-02T05:54:14.818Z,3.50
2022-10-02T05:55:14.812Z,3.40
2022-10-02T05:56:14.820Z,3.10
2022-10-02T05:57:14.780Z,2.90
2022-10-02T05:58:14.938Z,3.50
2022-10-02T05:59:14.761Z,3.60
2022-10-02T06:00:14.751Z,3.20
2022-10-02T06:01:14.932Z,3.50
2022-10-02T06:02:14.774Z,3.30
2022-10-02T06:03:14.730Z,4.10
2022-10-02T06:04:14.743Z,2.90
2022-10-02T06:05:14.699Z,3.50
2022-10-02T06:06:14.682Z,3.10
2022-10-02T06:07:14.672Z,3.10
2022-10-02T06:08:14.715Z,3.30
2022-10-02T06:09:19.577Z,2.90
2022-10-02T06:10:15.644Z,3.60
2022-10-02T06:11:14.632Z,2.90
2022-10-02T06:12:14.891Z,3.20
2022-10-02T06:13:14.625Z,3.20
2022-10-02T06:14:14.605Z,2.90
2022-10-02T06:15:14.577Z,3.00
2022-10-02T06:16:14.655Z,3.30
2022-10-02T06:17:14.565Z,3.20
2022-10-02T06:18:14.565Z,2.70
2022-10-02T06:19:14.537Z,3.10
2022-10-02T06:20:14.537Z,3.00
2022-10-02T06:21:14.516Z,2.60
2022-10-02T06:22:14.538Z,2.80
2022-10-02T06:23:14.507Z,2.40
2022-10-02T06:24:14.489Z,3.10
2022-10-02T06:25:14.477Z,2.60
2022-10-02T06:26:14.474Z,3.40
2022-10-02T06:27:14.449Z,2.70
2022-10-02T06:28:14.719Z,2.50
2022-10-02T06:29:18.361Z,2.40
2022-10-02T06:30:15.419Z,2.50
2022-10-02T06:31:14.451Z,2.70
2022-10-02T06:32:14.419Z,2.60
2022-10-02T06:33:14.398Z,2.90
2022-10-02T06:34:14.389Z,2.60
2022-10-02T06:35:14.379Z,2.70
2022-10-02T06:36:14.578Z,2.50
2022-10-02T06:37:14.341Z,2.20
2022-10-02T06:38:14.705Z,2.20
2022-10-02T06:39:14.330Z,2.40
2022-10-02T06:40:14.314Z,2.00
2022-10-02T06:41:14.304Z,2.80
2022-10-02T06:42:14.380Z,3.00
2022-10-02T06:43:14.301Z,2.20
2022-10-02T06:44:14.304Z,2.20
2022-10-02T06:45:14.265Z,2.40
2022-10-02T06:46:14.407Z,2.10
2022-10-02T06:47:14.235Z,1.90
2022-10-02T06:48:14.243Z,2.30
2022-10-02T06:49:14.222Z,1.90
2022-10-02T06:50:14.214Z,2.60
2022-10-02T06:51:14.191Z,2.10
2022-10-02T06:52:14.310Z,2.20
2022-10-02T06:53:14.186Z,2.10
2022-10-02T06:54:14.275Z,2.10
2022-10-02T06:55:14.146Z,1.90
2022-10-02T06:56:14.164Z,1.90
2022-10-02T06:57:14.124Z,2.00
2022-10-02T06:58:14.134Z,2.10
2022-10-02T06:59:14.115Z,2.40
2022-10-02T07:00:14.113Z,2.20
2022-10-02T07:01:14.122Z,2.70
2022-10-02T07:02:14.208Z,2.00
2022-10-02T07:03:14.087Z,2.20
2022-10-02T07:04:14.156Z,2.20
2022-10-02T07:05:14.036Z,2.60
2022-10-02T07:06:14.025Z,1.70
2022-10-02T07:07:14.020Z,1.90
2022-10-02T07:08:14.018Z,1.70
2022-10-02T07:09:14.011Z,1.80
2022-10-02T07:10:13.997Z,1.80
2022-10-02T07:11:13.970Z,1.70
2022-10-02T07:12:13.959Z,1.70
2022-10-02T07:13:13.970Z,1.50
2022-10-02T07:14:13.988Z,1.60
2022-10-02T07:15:13.967Z,1.70
2022-10-02T07:16:13.950Z,1.70
2022-10-02T07:17:13.919Z,2.10
2022-10-02T07:18:13.920Z,2.00
2022-10-02T07:19:13.949Z,2.20
2022-10-02T07:20:13.880Z,1.90
2022-10-02T07:21:13.862Z,1.80
2022-10-02T07:22:32.733Z,1.60
2022-10-02T07:23:14.851Z,2.10
2022-10-02T07:24:13.831Z,1.90
2022-10-02T07:25:13.930Z,1.80
2022-10-02T07:26:13.801Z,1.70
2022-10-02T07:27:13.887Z,1.80
2022-10-02T07:28:13.863Z,2.00
2022-10-02T07:29:13.920Z,1.70
2022-10-02T07:30:13.766Z,1.60
2022-10-02T07:31:13.789Z,2.00
2022-10-02T07:32:13.820Z,1.50
2022-10-02T07:33:13.783Z,1.70
2022-10-02T07:34:13.736Z,1.70
2022-10-02T07:35:13.722Z,2.00
2022-10-02T07:36:13.787Z,1.80
2022-10-02T07:37:13.730Z,2.00
2022-10-02T07:38:13.705Z,1.90
2022-10-02T07:39:13.655Z,1.50
2022-10-02T07:40:13.664Z,2.10
2022-10-02T07:41:13.635Z,1.70
2022-10-02T07:42:13.625Z,2.70
2022-10-02T07:43:13.626Z,1.60
2022-10-02T07:44:13.596Z,1.80
2022-10-02T07:45:13.595Z,1.90
2022-10-02T07:46:13.620Z,1.70
2022-10-02T07:47:13.576Z,1.70
2022-10-02T07:48:13.577Z,1.70
2022-10-02T07:49:13.546Z,1.90
2022-10-02T07:50:13.559Z,1.80
2022-10-02T07:51:16.086Z,1.60
2022-10-02T07:52:13.568Z,1.90
2022-10-02T07:53:13.508Z,1.90
2022-10-02T07:54:13.556Z,2.30
2022-10-02T07:55:13.479Z,3.00
2022-10-02T07:56:13.569Z,3.00
2022-10-02T07:57:13.467Z,3.00
2022-10-02T07:58:13.480Z,2.70
2022-10-02T07:59:13.443Z,2.50
2022-10-02T08:00:13.452Z,2.70
2022-10-02T08:01:13.411Z,2.50
2022-10-02T08:02:13.577Z,2.20
2022-10-02T08:03:13.488Z,2.00
2022-10-02T08:04:13.392Z,2.20
2022-10-02T08:05:13.380Z,2.00
2022-10-02T08:06:13.359Z,2.30
2022-10-02T08:07:13.341Z,2.30
2022-10-02T08:08:13.332Z,2.00
2022-10-02T08:09:13.321Z,2.10
2022-10-02T08:10:13.333Z,2.10
2022-10-02T08:11:13.302Z,2.20
2022-10-02T08:12:13.372Z,1.70
2022-10-02T08:13:13.293Z,1.90
2022-10-02T08:14:13.295Z,1.40
2022-10-02T08:15:13.261Z,1.70
2022-10-02T08:16:13.384Z,2.20
2022-10-02T08:17:13.276Z,1.60
2022-10-02T08:18:30.461Z,1.80
2022-10-02T08:19:14.316Z,1.70
2022-10-02T08:20:13.201Z,1.70
2022-10-02T08:21:13.197Z,1.80
2022-10-02T08:22:13.196Z,1.50
2022-10-02T08:23:13.189Z,1.40
2022-10-02T08:24:13.157Z,1.50
2022-10-02T08:25:13.145Z,1.60
2022-10-02T08:26:13.157Z,1.60
2022-10-02T08:27:13.126Z,2.30
2022-10-02T08:28:13.245Z,1.70
2022-10-02T08:29:13.171Z,1.70
2022-10-02T08:30:13.206Z,1.70
2022-10-02T08:31:13.145Z,1.70
2022-10-02T08:32:13.089Z,1.60
2022-10-02T08:33:13.077Z,2.00
2022-10-02T08:34:13.039Z,1.70
2022-10-02T08:35:13.038Z,1.70
2022-10-02T08:36:13.972Z,1.70
2022-10-02T08:37:13.020Z,2.10
2022-10-02T08:38:13.009Z,1.60
2022-10-02T08:39:12.990Z,1.40
2022-10-02T08:40:12.983Z,1.70
2022-10-02T08:41:12.960Z,1.80
2022-10-02T08:42:12.980Z,2.30
2022-10-02T08:43:12.972Z,1.80
2022-10-02T08:44:12.990Z,1.60
2022-10-02T08:45:12.921Z,1.80
2022-10-02T08:46:12.946Z,1.70
2022-10-02T08:47:12.910Z,1.70
2022-10-02T08:48:13.019Z,1.90
2022-10-02T08:49:12.883Z,1.70
2022-10-02T08:50:12.912Z,1.50
2022-10-02T08:51:12.855Z,1.80
2022-10-02T08:52:12.854Z,1.50
2022-10-02T08:53:12.845Z,1.90
2022-10-02T08:54:12.908Z,1.80
2022-10-02T08:55:12.824Z,1.70
2022-10-02T08:56:15.407Z,2.10
2022-10-02T08:57:13.786Z,2.00
2022-10-02T08:58:12.808Z,1.60
2022-10-02T08:59:12.805Z,2.10
2022-10-02T09:00:12.766Z,1.70
2022-10-02T09:01:12.804Z,2.20
2022-10-02T09:02:12.835Z,1.70
2022-10-02T09:03:12.918Z,2.10
2022-10-02T09:04:12.779Z,2.20
2022-10-02T09:05:12.821Z,1.90
2022-10-02T09:06:12.718Z,2.00
2022-10-02T09:07:12.687Z,1.50
2022-10-02T09:08:12.717Z,2.00
2022-10-02T09:09:12.671Z,1.60
2022-10-02T09:10:12.742Z,1.50
2022-10-02T09:11:12.830Z,1.50
2022-10-02T09:12:12.629Z,1.50
2022-10-02T09:13:12.659Z,1.50
2022-10-02T09:14:12.671Z,1.50
2022-10-02T09:15:12.691Z,1.30
2022-10-02T09:16:12.649Z,1.30
2022-10-02T09:17:12.569Z,1.50
2022-10-02T09:18:12.600Z,1.20
2022-10-02T09:19:12.541Z,1.30
2022-10-02T09:20:12.599Z,1.40
2022-10-02T09:21:12.533Z,1.10
2022-10-02T09:22:12.523Z,1.20
2022-10-02T09:23:12.526Z,1.20
2022-10-02T09:24:12.533Z,1.40
2022-10-02T09:25:12.494Z,1.30
2022-10-02T09:26:12.472Z,1.10
2022-10-02T09:27:12.463Z,1.00
2022-10-02T09:28:12.614Z,1.00
2022-10-02T09:29:12.448Z,1.20
2022-10-02T09:30:12.494Z,1.30
2022-10-02T09:31:12.462Z,1.50
2022-10-02T09:32:12.542Z,1.20
2022-10-02T09:33:15.839Z,1.40
2022-10-02T09:34:12.435Z,1.30
2022-10-02T09:35:12.374Z,1.20
2022-10-02T09:36:12.358Z,1.10
2022-10-02T09:37:12.359Z,1.10
2022-10-02T09:38:12.386Z,1.40
2022-10-02T09:39:12.328Z,1.30
2022-10-02T09:40:12.320Z,1.60
2022-10-02T09:41:12.300Z,1.10
2022-10-02T09:42:12.312Z,0.80
2022-10-02T09:43:12.389Z,1.10
2022-10-02T09:44:12.329Z,1.20
2022-10-02T09:45:12.260Z,1.30
2022-10-02T09:46:12.314Z,1.20
2022-10-02T09:47:12.232Z,1.20
2022-10-02T09:48:12.252Z,1.50
2022-10-02T09:49:12.224Z,1.20
2022-10-02T09:50:12.243Z,1.10
2022-10-02T09:51:12.204Z,1.20
2022-10-02T09:52:12.183Z,1.20
2022-10-02T09:53:12.205Z,1.20
2022-10-02T09:54:12.174Z,1.00
2022-10-02T09:55:12.227Z,1.20
2022-10-02T09:56:12.246Z,1.50
2022-10-02T09:57:12.135Z,1.40
2022-10-02T09:58:12.309Z,1.20
2022-10-02T09:59:12.107Z,1.20
2022-10-02T10:00:12.158Z,1.10
2022-10-02T10:01:12.176Z,1.60
2022-10-02T10:02:12.136Z,1.20
2022-10-02T10:03:12.069Z,1.40
2022-10-02T10:04:12.089Z,1.50
2022-10-02T10:05:12.056Z,1.30
2022-10-02T10:06:12.039Z,1.00
2022-10-02T10:07:12.023Z,1.00
2022-10-02T10:08:12.031Z,1.30
2022-10-02T10:09:12.003Z,1.50
2022-10-02T10:10:12.003Z,1.40
2022-10-02T10:11:11.972Z,1.40
2022-10-02T10:12:11.974Z,1.40
2022-10-02T10:13:11.965Z,1.50
2022-10-02T10:14:11.977Z,1.40
2022-10-02T10:15:11.932Z,1.60
2022-10-02T10:16:11.987Z,1.40
2022-10-02T10:17:11.918Z,1.00
2022-10-02T10:18:11.914Z,1.30
2022-10-02T10:19:11.895Z,1.20
2022-10-02T10:20:11.897Z,1.30
2022-10-02T10:21:11.875Z,1.70
2022-10-02T10:22:11.896Z,1.40
2022-10-02T10:23:11.858Z,1.50
2022-10-02T10:24:11.839Z,1.10
2022-10-02T10:25:11.857Z,1.50
2022-10-02T10:26:11.826Z,1.20
2022-10-02T10:27:11.831Z,1.20
2022-10-02T10:28:12.090Z,1.60
2022-10-02T10:29:11.787Z,1.40
2022-10-02T10:30:11.945Z,1.20
2022-10-02T10:31:11.786Z,1.40
2022-10-02T10:32:11.775Z,1.60
2022-10-02T10:33:11.748Z,1.50
2022-10-02T10:34:11.809Z,1.50
2022-10-02T10:35:11.721Z,1.60
2022-10-02T10:36:11.784Z,1.60
2022-10-02T10:37:11.693Z,1.20
2022-10-02T10:38:11.733Z,1.80
2022-10-02T10:39:11.670Z,1.50
2022-10-02T10:40:11.746Z,1.40
2022-10-02T10:41:11.643Z,1.40
2022-10-02T10:42:11.651Z,1.30
2022-10-02T10:43:15.787Z,1.50
2022-10-02T10:44:12.627Z,1.30
2022-10-02T10:45:11.604Z,1.40
2022-10-02T10:46:11.743Z,1.20
2022-10-02T10:47:11.594Z,2.20
2022-10-02T10:48:11.618Z,1.60
2022-10-02T10:49:11.566Z,1.70
2022-10-02T10:50:11.722Z,1.50
2022-10-02T10:51:11.558Z,1.80
2022-10-02T10:52:11.573Z,1.40
2022-10-02T10:53:11.547Z,1.50
2022-10-02T10:54:11.529Z,1.50
2022-10-02T10:55:11.496Z,1.90
2022-10-02T10:56:11.500Z,1.50
2022-10-02T10:57:11.469Z,1.70
2022-10-02T10:58:11.529Z,1.60
2022-10-02T10:59:11.450Z,1.90
2022-10-02T11:00:11.815Z,1.70
2022-10-02T11:01:11.467Z,1.50
2022-10-02T11:02:11.470Z,1.50
2022-10-02T11:03:11.409Z,1.90
2022-10-02T11:04:11.433Z,1.60
2022-10-02T11:05:11.399Z,1.80
2022-10-02T11:06:11.382Z,1.80
2022-10-02T11:07:11.354Z,1.80
2022-10-02T11:08:11.384Z,1.80
2022-10-02T11:09:11.332Z,2.10
2022-10-02T11:10:11.489Z,1.70
2022-10-02T11:11:11.305Z,2.10
2022-10-02T11:12:11.332Z,1.90
2022-10-02T11:13:11.303Z,2.30
2022-10-02T11:14:11.297Z,1.70
2022-10-02T11:15:11.264Z,1.70
2022-10-02T11:16:11.348Z,2.20
2022-10-02T11:17:11.250Z,1.90
2022-10-02T11:18:11.245Z,1.80
2022-10-02T11:19:11.217Z,1.90
2022-10-02T11:20:11.301Z,2.00
2022-10-02T11:21:11.186Z,1.80
2022-10-02T11:22:11.188Z,1.80
2022-10-02T11:23:11.197Z,1.80
2022-10-02T11:24:11.219Z,2.00
2022-10-02T11:25:13.157Z,2.20
2022-10-02T11:26:11.157Z,2.10
2022-10-02T11:27:11.128Z,1.70
2022-10-02T11:28:11.163Z,1.70
2022-10-02T11:29:11.100Z,2.00
2022-10-02T11:30:11.145Z,1.80
2022-10-02T11:31:11.141Z,2.10
2022-10-02T11:32:11.090Z,1.50
2022-10-02T11:33:11.120Z,1.70
2022-10-02T11:34:11.060Z,1.80
2022-10-02T11:35:11.043Z,1.70
2022-10-02T11:36:11.044Z,1.60
2022-10-02T11:37:11.024Z,2.20
2022-10-02T11:38:11.034Z,1.90
2022-10-02T11:39:10.995Z,2.10
2022-10-02T11:40:10.995Z,1.90
2022-10-02T11:41:10.985Z,2.00
2022-10-02T11:42:10.998Z,1.90
2022-10-02T11:43:10.965Z,1.90
2022-10-02T11:44:10.971Z,1.90
2022-10-02T11:45:10.945Z,1.70
2022-10-02T11:46:10.974Z,2.10
2022-10-02T11:47:10.916Z,1.70
2022-10-02T11:48:10.915Z,1.40
2022-10-02T11:49:10.888Z,1.60
2022-10-02T11:50:10.887Z,1.50
2022-10-02T11:51:10.868Z,1.90
2022-10-02T11:52:10.982Z,2.00
2022-10-02T11:53:10.860Z,2.00
2022-10-02T11:54:10.839Z,2.20
2022-10-02T11:55:10.821Z,1.90
2022-10-02T11:56:10.859Z,1.80
2022-10-02T11:57:10.799Z,1.90
2022-10-02T11:58:10.849Z,1.80
2022-10-02T11:59:10.793Z,1.80
2022-10-02T12:00:10.835Z,1.90
2022-10-02T12:01:10.761Z,1.90
2022-10-02T12:02:13.389Z,1.90
2022-10-02T12:03:11.776Z,2.00
2022-10-02T12:04:10.733Z,1.60
2022-10-02T12:05:10.715Z,1.50
2022-10-02T12:06:10.786Z,1.80
2022-10-02T12:07:10.694Z,1.60
2022-10-02T12:08:10.749Z,2.00
2022-10-02T12:09:10.675Z,2.00
2022-10-02T12:10:10.740Z,1.80
2022-10-02T12:11:10.646Z,2.10
2022-10-02T12:12:10.645Z,1.70
2022-10-02T12:13:10.647Z,1.90
2022-10-02T12:14:10.627Z,2.10
2022-10-02T12:15:10.608Z,2.20
2022-10-02T12:16:10.691Z,1.80
2022-10-02T12:17:10.578Z,1.80
2022-10-02T12:18:10.709Z,1.80
2022-10-02T12:19:10.561Z,1.90
2022-10-02T12:20:10.558Z,2.00
2022-10-02T12:21:10.557Z,2.00
2022-10-02T12:22:10.691Z,2.00
2022-10-02T12:23:10.541Z,2.00
2022-10-02T12:24:10.531Z,1.90
2022-10-02T12:25:10.523Z,2.20
2022-10-02T12:26:10.511Z,1.80
2022-10-02T12:27:10.471Z,1.80
2022-10-02T12:28:10.604Z,2.00
2022-10-02T12:29:10.462Z,1.60
2022-10-02T12:30:10.472Z,2.20
2022-10-02T12:31:10.434Z,1.70
2022-10-02T12:32:10.462Z,1.80
2022-10-02T12:33:10.414Z,2.10
2022-10-02T12:34:10.436Z,2.30
2022-10-02T12:35:10.395Z,2.20
2022-10-02T12:36:10.398Z,2.10
2022-10-02T12:37:10.369Z,2.30
2022-10-02T12:38:10.447Z,1.90
2022-10-02T12:39:10.366Z,2.10
2022-10-02T12:40:10.499Z,1.80
2022-10-02T12:41:10.331Z,2.30
2022-10-02T12:42:10.348Z,1.90
2022-10-02T12:43:10.340Z,2.30
2022-10-02T12:44:10.387Z,2.20
2022-10-02T12:45:11.846Z,2.10
2022-10-02T12:46:10.375Z,2.30
2022-10-02T12:47:10.249Z,2.00
2022-10-02T12:48:10.405Z,1.80
2022-10-02T12:49:10.232Z,2.50
2022-10-02T12:50:10.243Z,2.40
2022-10-02T12:51:10.208Z,1.90
2022-10-02T12:52:10.217Z,2.10
2022-10-02T12:53:10.199Z,2.30
2022-10-02T12:54:10.212Z,2.40
2022-10-02T12:55:10.172Z,2.40
2022-10-02T12:56:10.231Z,2.30
2022-10-02T12:57:10.163Z,2.00
2022-10-02T12:58:10.163Z,1.90
2022-10-02T12:59:10.124Z,1.90
2022-10-02T13:00:10.172Z,2.00
2022-10-02T13:01:10.286Z,2.10
2022-10-02T13:02:10.228Z,2.20
2022-10-02T13:03:10.166Z,1.60
2022-10-02T13:04:10.118Z,1.90
2022-10-02T13:05:10.052Z,2.20
2022-10-02T13:06:10.098Z,1.90
2022-10-02T13:07:10.091Z,2.10
2022-10-02T13:08:10.038Z,2.00
2022-10-02T13:09:10.089Z,2.50
2022-10-02T13:10:10.029Z,2.00
2022-10-02T13:11:10.228Z,1.90
2022-10-02T13:12:10.070Z,2.00
2022-10-02T13:13:09.989Z,2.00
2022-10-02T13:14:09.961Z,1.90
2022-10-02T13:15:09.941Z,1.80
2022-10-02T13:16:09.986Z,1.80
2022-10-02T13:17:10.448Z,1.80
2022-10-02T13:18:09.941Z,2.10